Irving South's Hourly Summary for Tuesday, July 10, 2018
Hour Temp
(f)
RH
(%)
Solar Rad.
(MJ/m2)
Rainfall
(in)
Wind
(mph)
7/10/2018 12:00 AM 77 77 0 0 0
7/10/2018 1:00 AM 76 80 0 0 0
7/10/2018 2:00 AM 75 84 0 0 0.02
7/10/2018 3:00 AM 75 82 0 0 0
7/10/2018 4:00 AM 74 85 0 0 0
7/10/2018 5:00 AM 73 87 0 0 0
7/10/2018 6:00 AM 73 87 0 0 0
7/10/2018 7:00 AM 73 87 0.03 0 0
7/10/2018 8:00 AM 74 82 0.23 0 0
7/10/2018 9:00 AM 77 75 0.78 0 0.76
7/10/2018 10:00 AM 81 60 1.68 0 1.68
7/10/2018 11:00 AM 84 54 2.67 0 2.39
7/10/2018 12:00 PM 85 53 2.73 0 2.24
7/10/2018 1:00 PM 89 43 3.26 0 0.85
7/10/2018 2:00 PM 90 42 2.69 0 0.68
7/10/2018 3:00 PM 92 39 2.29 0 0.24
7/10/2018 4:00 PM 78 42 0.1 0.08 6.66
7/10/2018 5:00 PM 72 86 0.06 0.04 0.21
7/10/2018 6:00 PM 74 89 0.13 0.02 0.01
7/10/2018 7:00 PM 76 84 0.27 0.01 0
7/10/2018 8:00 PM 77 88 0.14 0 0
7/10/2018 9:00 PM 77 89 0.03 0 0.28
7/10/2018 10:00 PM 76 88 0.01 0 0.06
7/10/2018 11:00 PM 75 93 0.01 0 0
Data Summary 78 74 17.11 0.15 0.67